sensor_id;sensor_type;location;lat;lon;timestamp;P1;durP1;ratioP1;P2;durP2;ratioP2
10365;SDS011;5229;41.820;23.490;2023-03-02T00:01:42;10.13;;;6.70;;
10365;SDS011;5229;41.820;23.490;2023-03-02T00:04:13;7.90;;;6.07;;
10365;SDS011;5229;41.820;23.490;2023-03-02T00:06:43;9.23;;;6.60;;
10365;SDS011;5229;41.820;23.490;2023-03-02T00:09:09;8.00;;;6.03;;
10365;SDS011;5229;41.820;23.490;2023-03-02T00:11:37;9.57;;;5.23;;
10365;SDS011;5229;41.820;23.490;2023-03-02T00:14:04;7.30;;;5.47;;
10365;SDS011;5229;41.820;23.490;2023-03-02T00:16:32;6.97;;;4.87;;
10365;SDS011;5229;41.820;23.490;2023-03-02T00:18:59;7.80;;;5.17;;
10365;SDS011;5229;41.820;23.490;2023-03-02T00:21:26;8.70;;;4.60;;
10365;SDS011;5229;41.820;23.490;2023-03-02T00:23:53;9.57;;;4.33;;
10365;SDS011;5229;41.820;23.490;2023-03-02T00:26:19;6.33;;;4.53;;
10365;SDS011;5229;41.820;23.490;2023-03-02T00:28:46;7.53;;;5.23;;
10365;SDS011;5229;41.820;23.490;2023-03-02T00:31:13;8.63;;;5.80;;
10365;SDS011;5229;41.820;23.490;2023-03-02T00:33:42;10.90;;;6.23;;
10365;SDS011;5229;41.820;23.490;2023-03-02T00:36:13;8.87;;;5.63;;
10365;SDS011;5229;41.820;23.490;2023-03-02T00:38:41;6.73;;;5.30;;
10365;SDS011;5229;41.820;23.490;2023-03-02T00:41:09;5.70;;;4.90;;
10365;SDS011;5229;41.820;23.490;2023-03-02T00:43:36;9.30;;;5.73;;
10365;SDS011;5229;41.820;23.490;2023-03-02T00:46:07;11.73;;;6.27;;
10365;SDS011;5229;41.820;23.490;2023-03-02T00:48:35;8.37;;;6.00;;
10365;SDS011;5229;41.820;23.490;2023-03-02T00:51:03;9.87;;;6.20;;
10365;SDS011;5229;41.820;23.490;2023-03-02T00:53:30;7.37;;;5.50;;
10365;SDS011;5229;41.820;23.490;2023-03-02T00:55:57;8.87;;;6.50;;
10365;SDS011;5229;41.820;23.490;2023-03-02T00:58:25;8.20;;;5.90;;
10365;SDS011;5229;41.820;23.490;2023-03-02T01:00:52;8.57;;;5.67;;
10365;SDS011;5229;41.820;23.490;2023-03-02T01:03:19;9.93;;;6.43;;
10365;SDS011;5229;41.820;23.490;2023-03-02T01:05:46;8.97;;;6.00;;
10365;SDS011;5229;41.820;23.490;2023-03-02T01:08:15;8.50;;;5.80;;
10365;SDS011;5229;41.820;23.490;2023-03-02T01:10:41;8.73;;;7.00;;
10365;SDS011;5229;41.820;23.490;2023-03-02T01:13:08;11.97;;;7.60;;
10365;SDS011;5229;41.820;23.490;2023-03-02T01:15:35;12.30;;;8.23;;
10365;SDS011;5229;41.820;23.490;2023-03-02T01:18:02;8.90;;;7.23;;
10365;SDS011;5229;41.820;23.490;2023-03-02T01:20:29;9.17;;;6.53;;
10365;SDS011;5229;41.820;23.490;2023-03-02T01:22:55;10.17;;;6.90;;
10365;SDS011;5229;41.820;23.490;2023-03-02T01:25:24;10.80;;;6.97;;
10365;SDS011;5229;41.820;23.490;2023-03-02T01:27:51;10.93;;;7.40;;
10365;SDS011;5229;41.820;23.490;2023-03-02T01:30:18;9.40;;;6.30;;
10365;SDS011;5229;41.820;23.490;2023-03-02T01:32:45;9.57;;;6.93;;
10365;SDS011;5229;41.820;23.490;2023-03-02T01:35:12;10.07;;;6.97;;
10365;SDS011;5229;41.820;23.490;2023-03-02T01:37:39;7.30;;;5.90;;
10365;SDS011;5229;41.820;23.490;2023-03-02T01:40:06;8.33;;;6.27;;
10365;SDS011;5229;41.820;23.490;2023-03-02T01:42:37;8.97;;;6.80;;
10365;SDS011;5229;41.820;23.490;2023-03-02T01:48:10;10.60;;;7.00;;
10365;SDS011;5229;41.820;23.490;2023-03-02T01:50:39;9.97;;;6.67;;
10365;SDS011;5229;41.820;23.490;2023-03-02T01:53:06;8.50;;;6.60;;
10365;SDS011;5229;41.820;23.490;2023-03-02T01:55:33;9.17;;;6.07;;
10365;SDS011;5229;41.820;23.490;2023-03-02T01:58:05;9.90;;;6.70;;
10365;SDS011;5229;41.820;23.490;2023-03-02T02:00:33;9.30;;;6.50;;
10365;SDS011;5229;41.820;23.490;2023-03-02T02:03:04;8.57;;;5.57;;
10365;SDS011;5229;41.820;23.490;2023-03-02T02:05:35;11.30;;;6.93;;
10365;SDS011;5229;41.820;23.490;2023-03-02T02:08:04;9.77;;;6.87;;
10365;SDS011;5229;41.820;23.490;2023-03-02T05:06:59;8.50;;;6.03;;
10365;SDS011;5229;41.820;23.490;2023-03-02T05:09:26;8.03;;;5.47;;
10365;SDS011;5229;41.820;23.490;2023-03-02T05:11:55;6.63;;;5.43;;
10365;SDS011;5229;41.820;23.490;2023-03-02T05:14:23;7.03;;;5.23;;
10365;SDS011;5229;41.820;23.490;2023-03-02T05:16:51;7.80;;;5.77;;
10365;SDS011;5229;41.820;23.490;2023-03-02T05:19:19;5.73;;;5.10;;
10365;SDS011;5229;41.820;23.490;2023-03-02T05:21:46;6.27;;;4.80;;
10365;SDS011;5229;41.820;23.490;2023-03-02T05:24:14;6.93;;;5.10;;
10365;SDS011;5229;41.820;23.490;2023-03-02T05:26:41;6.37;;;5.70;;
10365;SDS011;5229;41.820;23.490;2023-03-02T05:29:08;9.33;;;5.70;;
10365;SDS011;5229;41.820;23.490;2023-03-02T05:31:35;6.60;;;5.23;;
10365;SDS011;5229;41.820;23.490;2023-03-02T05:34:04;7.40;;;5.87;;
10365;SDS011;5229;41.820;23.490;2023-03-02T05:36:32;7.90;;;5.30;;
10365;SDS011;5229;41.820;23.490;2023-03-02T05:38:59;10.03;;;6.70;;
10365;SDS011;5229;41.820;23.490;2023-03-02T05:41:28;8.27;;;6.30;;
10365;SDS011;5229;41.820;23.490;2023-03-02T05:43:55;8.53;;;6.37;;
10365;SDS011;5229;41.820;23.490;2023-03-02T05:46:22;7.47;;;5.90;;
10365;SDS011;5229;41.820;23.490;2023-03-02T05:48:48;6.77;;;5.67;;
10365;SDS011;5229;41.820;23.490;2023-03-02T05:51:16;6.40;;;5.67;;
10365;SDS011;5229;41.820;23.490;2023-03-02T05:53:42;9.37;;;5.80;;
10365;SDS011;5229;41.820;23.490;2023-03-02T05:56:09;6.53;;;5.57;;
10365;SDS011;5229;41.820;23.490;2023-03-02T05:58:37;6.67;;;5.97;;
10365;SDS011;5229;41.820;23.490;2023-03-02T06:01:06;8.60;;;5.70;;
10365;SDS011;5229;41.820;23.490;2023-03-02T06:03:35;7.77;;;5.73;;
10365;SDS011;5229;41.820;23.490;2023-03-02T06:06:02;7.63;;;5.60;;
10365;SDS011;5229;41.820;23.490;2023-03-02T06:08:29;8.47;;;6.23;;
10365;SDS011;5229;41.820;23.490;2023-03-02T06:10:56;9.97;;;7.37;;
10365;SDS011;5229;41.820;23.490;2023-03-02T06:13:23;7.70;;;6.67;;
10365;SDS011;5229;41.820;23.490;2023-03-02T06:15:51;8.60;;;7.33;;
10365;SDS011;5229;41.820;23.490;2023-03-02T06:18:17;9.83;;;8.00;;
10365;SDS011;5229;41.820;23.490;2023-03-02T06:20:44;9.83;;;7.53;;
10365;SDS011;5229;41.820;23.490;2023-03-02T06:23:11;10.63;;;6.77;;
10365;SDS011;5229;41.820;23.490;2023-03-02T06:25:38;10.23;;;7.33;;
10365;SDS011;5229;41.820;23.490;2023-03-02T06:28:07;10.53;;;7.43;;
10365;SDS011;5229;41.820;23.490;2023-03-02T06:30:34;10.50;;;6.97;;
10365;SDS011;5229;41.820;23.490;2023-03-02T06:33:02;12.93;;;9.60;;
10365;SDS011;5229;41.820;23.490;2023-03-02T06:35:29;15.17;;;11.33;;
10365;SDS011;5229;41.820;23.490;2023-03-02T06:37:57;19.57;;;13.20;;
10365;SDS011;5229;41.820;23.490;2023-03-02T06:40:24;18.47;;;14.10;;
10365;SDS011;5229;41.820;23.490;2023-03-02T06:42:51;19.67;;;15.33;;
10365;SDS011;5229;41.820;23.490;2023-03-02T06:45:17;30.27;;;20.10;;
10365;SDS011;5229;41.820;23.490;2023-03-02T06:47:44;23.57;;;18.40;;
10365;SDS011;5229;41.820;23.490;2023-03-02T06:50:12;26.97;;;16.40;;
10365;SDS011;5229;41.820;23.490;2023-03-02T06:52:39;24.40;;;16.17;;
10365;SDS011;5229;41.820;23.490;2023-03-02T06:55:06;29.83;;;16.73;;
10365;SDS011;5229;41.820;23.490;2023-03-02T06:57:34;15.47;;;11.67;;
10365;SDS011;5229;41.820;23.490;2023-03-02T07:00:01;18.23;;;12.07;;
10365;SDS011;5229;41.820;23.490;2023-03-02T07:02:33;14.90;;;9.93;;
10365;SDS011;5229;41.820;23.490;2023-03-02T07:05:00;17.03;;;9.37;;
10365;SDS011;5229;41.820;23.490;2023-03-02T07:07:28;16.97;;;9.97;;
10365;SDS011;5229;41.820;23.490;2023-03-02T07:09:55;12.17;;;8.50;;
10365;SDS011;5229;41.820;23.490;2023-03-02T07:12:22;14.03;;;8.70;;
10365;SDS011;5229;41.820;23.490;2023-03-02T07:14:49;13.87;;;9.43;;
10365;SDS011;5229;41.820;23.490;2023-03-02T07:17:15;9.67;;;6.93;;
10365;SDS011;5229;41.820;23.490;2023-03-02T07:19:42;8.33;;;6.17;;
10365;SDS011;5229;41.820;23.490;2023-03-02T07:22:09;10.13;;;7.87;;
10365;SDS011;5229;41.820;23.490;2023-03-02T07:24:37;13.87;;;7.57;;
10365;SDS011;5229;41.820;23.490;2023-03-02T07:27:04;15.73;;;10.93;;
10365;SDS011;5229;41.820;23.490;2023-03-02T07:29:31;10.70;;;7.80;;
10365;SDS011;5229;41.820;23.490;2023-03-02T07:31:58;9.30;;;6.90;;
10365;SDS011;5229;41.820;23.490;2023-03-02T07:34:25;9.07;;;7.60;;
10365;SDS011;5229;41.820;23.490;2023-03-02T07:36:52;10.13;;;8.10;;
10365;SDS011;5229;41.820;23.490;2023-03-02T07:39:19;10.67;;;7.97;;
10365;SDS011;5229;41.820;23.490;2023-03-02T07:41:47;12.57;;;8.53;;
10365;SDS011;5229;41.820;23.490;2023-03-02T07:44:14;12.37;;;9.17;;
10365;SDS011;5229;41.820;23.490;2023-03-02T07:46:41;12.77;;;8.63;;
10365;SDS011;5229;41.820;23.490;2023-03-02T07:49:08;10.97;;;9.50;;
10365;SDS011;5229;41.820;23.490;2023-03-02T07:51:35;12.37;;;8.67;;
10365;SDS011;5229;41.820;23.490;2023-03-02T07:54:01;10.67;;;8.73;;
10365;SDS011;5229;41.820;23.490;2023-03-02T07:56:29;14.03;;;10.13;;
10365;SDS011;5229;41.820;23.490;2023-03-02T07:58:57;15.13;;;10.27;;
10365;SDS011;5229;41.820;23.490;2023-03-02T08:01:24;15.30;;;10.17;;
10365;SDS011;5229;41.820;23.490;2023-03-02T08:03:50;13.13;;;10.03;;
10365;SDS011;5229;41.820;23.490;2023-03-02T08:06:17;14.67;;;11.10;;
10365;SDS011;5229;41.820;23.490;2023-03-02T08:08:44;14.87;;;11.07;;
10365;SDS011;5229;41.820;23.490;2023-03-02T08:11:12;16.20;;;10.87;;
10365;SDS011;5229;41.820;23.490;2023-03-02T08:13:41;13.13;;;10.17;;
10365;SDS011;5229;41.820;23.490;2023-03-02T08:16:10;22.17;;;15.93;;
10365;SDS011;5229;41.820;23.490;2023-03-02T08:18:38;16.23;;;11.37;;
10365;SDS011;5229;41.820;23.490;2023-03-02T08:21:09;20.70;;;15.60;;
10365;SDS011;5229;41.820;23.490;2023-03-02T08:23:38;16.33;;;11.70;;
10365;SDS011;5229;41.820;23.490;2023-03-02T08:26:04;38.07;;;23.53;;
10365;SDS011;5229;41.820;23.490;2023-03-02T08:28:32;63.20;;;45.17;;
10365;SDS011;5229;41.820;23.490;2023-03-02T08:30:59;24.43;;;16.73;;
10365;SDS011;5229;41.820;23.490;2023-03-02T08:33:29;18.67;;;13.87;;
10365;SDS011;5229;41.820;23.490;2023-03-02T08:35:56;17.33;;;12.07;;
10365;SDS011;5229;41.820;23.490;2023-03-02T08:38:24;15.90;;;11.17;;
10365;SDS011;5229;41.820;23.490;2023-03-02T08:40:52;17.60;;;14.33;;
10365;SDS011;5229;41.820;23.490;2023-03-02T08:43:19;18.40;;;12.90;;
10365;SDS011;5229;41.820;23.490;2023-03-02T08:45:49;17.27;;;12.33;;
10365;SDS011;5229;41.820;23.490;2023-03-02T08:48:17;19.63;;;14.90;;
10365;SDS011;5229;41.820;23.490;2023-03-02T08:50:45;16.73;;;13.00;;
10365;SDS011;5229;41.820;23.490;2023-03-02T08:53:20;20.87;;;14.17;;
10365;SDS011;5229;41.820;23.490;2023-03-02T08:55:47;20.03;;;13.17;;
10365;SDS011;5229;41.820;23.490;2023-03-02T08:58:14;20.97;;;15.07;;
10365;SDS011;5229;41.820;23.490;2023-03-02T09:00:41;17.80;;;12.30;;
10365;SDS011;5229;41.820;23.490;2023-03-02T09:03:08;22.43;;;15.33;;
10365;SDS011;5229;41.820;23.490;2023-03-02T09:05:34;24.80;;;17.80;;
10365;SDS011;5229;41.820;23.490;2023-03-02T09:08:03;22.67;;;16.07;;
10365;SDS011;5229;41.820;23.490;2023-03-02T09:10:30;25.30;;;17.20;;
10365;SDS011;5229;41.820;23.490;2023-03-02T09:12:57;20.23;;;13.80;;
10365;SDS011;5229;41.820;23.490;2023-03-02T09:15:24;20.03;;;14.10;;
10365;SDS011;5229;41.820;23.490;2023-03-02T09:17:51;16.27;;;11.70;;
10365;SDS011;5229;41.820;23.490;2023-03-02T09:20:18;20.17;;;12.67;;
10365;SDS011;5229;41.820;23.490;2023-03-02T09:22:45;16.63;;;11.60;;
10365;SDS011;5229;41.820;23.490;2023-03-02T09:25:16;17.93;;;13.00;;
10365;SDS011;5229;41.820;23.490;2023-03-02T09:27:44;23.27;;;16.83;;
10365;SDS011;5229;41.820;23.490;2023-03-02T09:30:12;18.23;;;13.90;;
10365;SDS011;5229;41.820;23.490;2023-03-02T09:32:40;19.53;;;14.57;;
10365;SDS011;5229;41.820;23.490;2023-03-02T09:35:07;17.60;;;12.97;;
10365;SDS011;5229;41.820;23.490;2023-03-02T09:37:34;21.00;;;13.63;;
10365;SDS011;5229;41.820;23.490;2023-03-02T09:40:03;25.87;;;19.30;;
10365;SDS011;5229;41.820;23.490;2023-03-02T09:43:02;30.10;;;21.10;;
10365;SDS011;5229;41.820;23.490;2023-03-02T09:45:46;18.20;;;12.47;;
10365;SDS011;5229;41.820;23.490;2023-03-02T09:48:27;14.20;;;10.80;;
10365;SDS011;5229;41.820;23.490;2023-03-02T09:51:06;14.93;;;10.97;;
10365;SDS011;5229;41.820;23.490;2023-03-02T09:53:45;14.17;;;10.57;;
10365;SDS011;5229;41.820;23.490;2023-03-02T09:56:18;17.63;;;11.57;;
10365;SDS011;5229;41.820;23.490;2023-03-02T09:58:48;15.07;;;11.60;;
10365;SDS011;5229;41.820;23.490;2023-03-02T10:01:27;18.93;;;14.50;;
10365;SDS011;5229;41.820;23.490;2023-03-02T10:04:02;19.60;;;14.17;;
10365;SDS011;5229;41.820;23.490;2023-03-02T10:06:44;25.77;;;17.40;;
10365;SDS011;5229;41.820;23.490;2023-03-02T10:09:11;22.13;;;14.23;;
10365;SDS011;5229;41.820;23.490;2023-03-02T10:11:41;28.70;;;18.70;;
10365;SDS011;5229;41.820;23.490;2023-03-02T10:14:23;27.93;;;16.53;;
10365;SDS011;5229;41.820;23.490;2023-03-02T10:16:54;30.30;;;19.30;;
10365;SDS011;5229;41.820;23.490;2023-03-02T10:19:31;15.23;;;10.47;;
10365;SDS011;5229;41.820;23.490;2023-03-02T10:22:08;14.80;;;10.23;;
10365;SDS011;5229;41.820;23.490;2023-03-02T10:24:44;15.03;;;9.30;;
10365;SDS011;5229;41.820;23.490;2023-03-02T10:27:14;23.33;;;15.63;;
10365;SDS011;5229;41.820;23.490;2023-03-02T10:29:48;34.30;;;19.93;;
10365;SDS011;5229;41.820;23.490;2023-03-02T10:32:20;27.57;;;18.97;;
10365;SDS011;5229;41.820;23.490;2023-03-02T10:34:48;21.00;;;14.63;;
10365;SDS011;5229;41.820;23.490;2023-03-02T10:37:17;25.93;;;17.37;;
10365;SDS011;5229;41.820;23.490;2023-03-02T10:39:45;43.50;;;28.57;;
10365;SDS011;5229;41.820;23.490;2023-03-02T10:42:13;26.53;;;18.87;;
10365;SDS011;5229;41.820;23.490;2023-03-02T10:44:44;22.63;;;14.87;;
10365;SDS011;5229;41.820;23.490;2023-03-02T10:47:22;16.00;;;10.83;;
10365;SDS011;5229;41.820;23.490;2023-03-02T10:49:51;16.37;;;11.50;;
10365;SDS011;5229;41.820;23.490;2023-03-02T10:52:19;16.37;;;11.80;;
10365;SDS011;5229;41.820;23.490;2023-03-02T10:54:47;18.53;;;12.87;;
10365;SDS011;5229;41.820;23.490;2023-03-02T10:57:27;75.30;;;37.03;;
10365;SDS011;5229;41.820;23.490;2023-03-02T10:59:57;27.50;;;19.23;;
10365;SDS011;5229;41.820;23.490;2023-03-02T11:02:28;25.27;;;16.67;;
10365;SDS011;5229;41.820;23.490;2023-03-02T11:04:58;25.13;;;17.17;;
10365;SDS011;5229;41.820;23.490;2023-03-02T11:07:50;41.27;;;23.53;;
10365;SDS011;5229;41.820;23.490;2023-03-02T11:10:19;31.80;;;18.63;;
10365;SDS011;5229;41.820;23.490;2023-03-02T11:12:48;18.00;;;11.83;;
10365;SDS011;5229;41.820;23.490;2023-03-02T11:15:20;18.20;;;12.73;;
10365;SDS011;5229;41.820;23.490;2023-03-02T11:17:51;18.23;;;12.60;;
10365;SDS011;5229;41.820;23.490;2023-03-02T11:20:23;25.67;;;17.57;;
10365;SDS011;5229;41.820;23.490;2023-03-02T11:22:58;25.63;;;14.30;;
10365;SDS011;5229;41.820;23.490;2023-03-02T11:25:32;18.07;;;13.23;;
10365;SDS011;5229;41.820;23.490;2023-03-02T11:28:04;36.40;;;24.90;;
10365;SDS011;5229;41.820;23.490;2023-03-02T11:30:39;45.80;;;32.20;;
10365;SDS011;5229;41.820;23.490;2023-03-02T11:33:14;19.70;;;15.40;;
10365;SDS011;5229;41.820;23.490;2023-03-02T11:35:46;15.67;;;10.90;;
10365;SDS011;5229;41.820;23.490;2023-03-02T11:38:17;21.77;;;14.40;;
10365;SDS011;5229;41.820;23.490;2023-03-02T11:40:49;20.00;;;13.87;;
10365;SDS011;5229;41.820;23.490;2023-03-02T11:43:18;19.97;;;15.30;;
10365;SDS011;5229;41.820;23.490;2023-03-02T11:45:46;17.90;;;14.87;;
10365;SDS011;5229;41.820;23.490;2023-03-02T11:48:20;16.20;;;13.30;;
10365;SDS011;5229;41.820;23.490;2023-03-02T11:50:53;16.97;;;11.93;;
10365;SDS011;5229;41.820;23.490;2023-03-02T11:53:23;15.23;;;10.60;;
10365;SDS011;5229;41.820;23.490;2023-03-02T11:55:55;12.60;;;9.23;;
10365;SDS011;5229;41.820;23.490;2023-03-02T11:58:23;10.77;;;9.23;;
10365;SDS011;5229;41.820;23.490;2023-03-02T12:00:53;12.60;;;8.80;;
10365;SDS011;5229;41.820;23.490;2023-03-02T12:03:34;15.13;;;9.47;;
10365;SDS011;5229;41.820;23.490;2023-03-02T12:06:04;12.97;;;9.00;;
10365;SDS011;5229;41.820;23.490;2023-03-02T12:08:35;14.23;;;9.27;;
10365;SDS011;5229;41.820;23.490;2023-03-02T12:11:05;11.27;;;8.83;;
10365;SDS011;5229;41.820;23.490;2023-03-02T12:13:34;8.93;;;7.03;;
10365;SDS011;5229;41.820;23.490;2023-03-02T12:16:03;12.03;;;7.57;;
10365;SDS011;5229;41.820;23.490;2023-03-02T12:18:45;12.00;;;8.33;;
10365;SDS011;5229;41.820;23.490;2023-03-02T12:21:15;10.40;;;7.83;;
10365;SDS011;5229;41.820;23.490;2023-03-02T12:23:53;10.17;;;7.73;;
10365;SDS011;5229;41.820;23.490;2023-03-02T12:26:24;12.73;;;7.90;;
10365;SDS011;5229;41.820;23.490;2023-03-02T12:28:55;11.53;;;8.43;;
10365;SDS011;5229;41.820;23.490;2023-03-02T12:31:25;10.43;;;7.43;;
10365;SDS011;5229;41.820;23.490;2023-03-02T12:33:53;10.07;;;7.00;;
10365;SDS011;5229;41.820;23.490;2023-03-02T12:36:23;10.40;;;7.27;;
10365;SDS011;5229;41.820;23.490;2023-03-02T12:38:58;9.33;;;7.00;;
10365;SDS011;5229;41.820;23.490;2023-03-02T12:41:49;9.67;;;6.47;;
10365;SDS011;5229;41.820;23.490;2023-03-02T12:44:33;9.77;;;7.00;;
10365;SDS011;5229;41.820;23.490;2023-03-02T12:47:12;10.87;;;7.50;;
10365;SDS011;5229;41.820;23.490;2023-03-02T12:49:45;12.73;;;7.83;;
10365;SDS011;5229;41.820;23.490;2023-03-02T12:52:19;12.87;;;7.60;;
10365;SDS011;5229;41.820;23.490;2023-03-02T12:55:00;9.70;;;7.20;;
10365;SDS011;5229;41.820;23.490;2023-03-02T12:57:29;9.87;;;7.30;;
10365;SDS011;5229;41.820;23.490;2023-03-02T12:59:57;14.93;;;8.17;;
10365;SDS011;5229;41.820;23.490;2023-03-02T13:02:26;10.87;;;7.60;;
10365;SDS011;5229;41.820;23.490;2023-03-02T13:04:56;11.07;;;7.17;;
10365;SDS011;5229;41.820;23.490;2023-03-02T13:07:25;10.13;;;7.73;;
10365;SDS011;5229;41.820;23.490;2023-03-02T13:09:56;9.67;;;6.70;;
10365;SDS011;5229;41.820;23.490;2023-03-02T13:12:26;8.67;;;6.20;;
10365;SDS011;5229;41.820;23.490;2023-03-02T13:14:55;9.20;;;6.50;;
10365;SDS011;5229;41.820;23.490;2023-03-02T13:17:24;9.00;;;7.17;;
10365;SDS011;5229;41.820;23.490;2023-03-02T13:19:56;10.23;;;6.00;;
10365;SDS011;5229;41.820;23.490;2023-03-02T13:22:23;8.80;;;5.67;;
10365;SDS011;5229;41.820;23.490;2023-03-02T13:24:55;8.53;;;5.50;;
10365;SDS011;5229;41.820;23.490;2023-03-02T13:27:25;11.43;;;5.67;;
10365;SDS011;5229;41.820;23.490;2023-03-02T13:29:52;14.70;;;7.80;;
10365;SDS011;5229;41.820;23.490;2023-03-02T13:32:21;10.70;;;6.87;;
10365;SDS011;5229;41.820;23.490;2023-03-02T13:34:50;11.70;;;6.40;;
10365;SDS011;5229;41.820;23.490;2023-03-02T13:37:30;10.20;;;5.43;;
10365;SDS011;5229;41.820;23.490;2023-03-02T13:40:02;7.37;;;4.07;;
10365;SDS011;5229;41.820;23.490;2023-03-02T13:42:34;6.83;;;4.27;;
10365;SDS011;5229;41.820;23.490;2023-03-02T13:45:12;4.70;;;3.53;;
10365;SDS011;5229;41.820;23.490;2023-03-02T13:47:47;5.17;;;2.77;;
10365;SDS011;5229;41.820;23.490;2023-03-02T13:50:18;3.90;;;2.87;;
10365;SDS011;5229;41.820;23.490;2023-03-02T13:52:47;3.23;;;2.73;;
10365;SDS011;5229;41.820;23.490;2023-03-02T13:55:15;3.93;;;2.33;;
10365;SDS011;5229;41.820;23.490;2023-03-02T13:57:43;3.13;;;2.47;;
10365;SDS011;5229;41.820;23.490;2023-03-02T14:00:12;2.97;;;2.37;;
10365;SDS011;5229;41.820;23.490;2023-03-02T14:02:41;3.37;;;2.50;;
10365;SDS011;5229;41.820;23.490;2023-03-02T14:05:09;6.53;;;4.60;;
10365;SDS011;5229;41.820;23.490;2023-03-02T14:07:42;4.17;;;3.33;;
10365;SDS011;5229;41.820;23.490;2023-03-02T14:10:11;3.53;;;2.60;;
10365;SDS011;5229;41.820;23.490;2023-03-02T14:12:39;6.63;;;2.60;;
10365;SDS011;5229;41.820;23.490;2023-03-02T14:15:11;2.50;;;2.10;;
10365;SDS011;5229;41.820;23.490;2023-03-02T14:17:42;2.80;;;2.07;;
10365;SDS011;5229;41.820;23.490;2023-03-02T14:20:11;2.33;;;1.90;;
10365;SDS011;5229;41.820;23.490;2023-03-02T14:22:39;1.73;;;1.63;;
10365;SDS011;5229;41.820;23.490;2023-03-02T14:25:07;1.53;;;1.43;;
10365;SDS011;5229;41.820;23.490;2023-03-02T14:27:35;1.80;;;1.70;;
10365;SDS011;5229;41.820;23.490;2023-03-02T14:30:06;3.77;;;2.20;;
10365;SDS011;5229;41.820;23.490;2023-03-02T14:32:39;2.17;;;1.60;;
10365;SDS011;5229;41.820;23.490;2023-03-02T14:35:07;2.57;;;2.10;;
10365;SDS011;5229;41.820;23.490;2023-03-02T14:37:37;4.60;;;3.67;;
10365;SDS011;5229;41.820;23.490;2023-03-02T14:40:13;7.00;;;5.27;;
10365;SDS011;5229;41.820;23.490;2023-03-02T14:42:44;7.60;;;5.37;;
10365;SDS011;5229;41.820;23.490;2023-03-02T14:45:11;6.83;;;5.30;;
10365;SDS011;5229;41.820;23.490;2023-03-02T14:47:38;8.93;;;5.50;;
10365;SDS011;5229;41.820;23.490;2023-03-02T14:50:05;9.23;;;5.40;;
10365;SDS011;5229;41.820;23.490;2023-03-02T14:52:34;8.07;;;5.70;;
10365;SDS011;5229;41.820;23.490;2023-03-02T14:55:04;9.33;;;5.80;;
10365;SDS011;5229;41.820;23.490;2023-03-02T14:57:34;7.90;;;5.83;;
10365;SDS011;5229;41.820;23.490;2023-03-02T15:00:05;8.70;;;5.30;;
10365;SDS011;5229;41.820;23.490;2023-03-02T15:02:34;6.40;;;5.03;;
10365;SDS011;5229;41.820;23.490;2023-03-02T15:05:01;10.77;;;6.47;;
10365;SDS011;5229;41.820;23.490;2023-03-02T15:07:27;11.43;;;9.10;;
10365;SDS011;5229;41.820;23.490;2023-03-02T15:09:54;8.97;;;5.43;;
10365;SDS011;5229;41.820;23.490;2023-03-02T15:12:22;9.70;;;6.83;;
10365;SDS011;5229;41.820;23.490;2023-03-02T15:14:49;18.27;;;11.33;;
10365;SDS011;5229;41.820;23.490;2023-03-02T15:17:17;11.10;;;7.43;;
10365;SDS011;5229;41.820;23.490;2023-03-02T15:19:44;6.37;;;4.80;;
10365;SDS011;5229;41.820;23.490;2023-03-02T15:22:11;8.50;;;6.10;;
10365;SDS011;5229;41.820;23.490;2023-03-02T15:24:38;6.47;;;4.47;;
10365;SDS011;5229;41.820;23.490;2023-03-02T15:27:05;10.70;;;6.63;;
10365;SDS011;5229;41.820;23.490;2023-03-02T15:29:32;9.77;;;6.83;;
10365;SDS011;5229;41.820;23.490;2023-03-02T15:31:59;9.33;;;6.90;;
10365;SDS011;5229;41.820;23.490;2023-03-02T15:34:27;10.97;;;7.43;;
10365;SDS011;5229;41.820;23.490;2023-03-02T15:36:53;4.57;;;3.27;;
10365;SDS011;5229;41.820;23.490;2023-03-02T15:39:20;4.13;;;3.50;;
10365;SDS011;5229;41.820;23.490;2023-03-02T15:41:47;4.60;;;3.40;;
10365;SDS011;5229;41.820;23.490;2023-03-02T15:44:15;6.17;;;4.03;;
10365;SDS011;5229;41.820;23.490;2023-03-02T15:46:46;6.97;;;4.33;;
10365;SDS011;5229;41.820;23.490;2023-03-02T15:49:13;5.07;;;3.83;;
10365;SDS011;5229;41.820;23.490;2023-03-02T15:51:41;7.63;;;4.27;;
10365;SDS011;5229;41.820;23.490;2023-03-02T15:54:08;4.97;;;3.43;;
10365;SDS011;5229;41.820;23.490;2023-03-02T15:56:35;4.47;;;3.33;;
10365;SDS011;5229;41.820;23.490;2023-03-02T15:59:02;5.57;;;4.00;;
10365;SDS011;5229;41.820;23.490;2023-03-02T16:01:29;6.23;;;4.00;;
10365;SDS011;5229;41.820;23.490;2023-03-02T16:03:57;7.37;;;4.43;;
10365;SDS011;5229;41.820;23.490;2023-03-02T16:06:24;7.20;;;5.20;;
10365;SDS011;5229;41.820;23.490;2023-03-02T16:08:53;6.30;;;4.73;;
10365;SDS011;5229;41.820;23.490;2023-03-02T16:11:20;9.00;;;5.73;;
10365;SDS011;5229;41.820;23.490;2023-03-02T16:13:48;6.90;;;5.60;;
10365;SDS011;5229;41.820;23.490;2023-03-02T16:16:15;8.90;;;7.20;;
10365;SDS011;5229;41.820;23.490;2023-03-02T16:18:43;8.10;;;6.50;;
10365;SDS011;5229;41.820;23.490;2023-03-02T16:21:15;15.93;;;9.03;;
10365;SDS011;5229;41.820;23.490;2023-03-02T16:23:42;11.90;;;9.23;;
10365;SDS011;5229;41.820;23.490;2023-03-02T16:26:10;11.47;;;8.17;;
10365;SDS011;5229;41.820;23.490;2023-03-02T16:28:39;11.97;;;8.30;;
10365;SDS011;5229;41.820;23.490;2023-03-02T16:31:08;9.47;;;6.43;;
10365;SDS011;5229;41.820;23.490;2023-03-02T16:33:37;7.47;;;5.83;;
10365;SDS011;5229;41.820;23.490;2023-03-02T16:36:04;13.60;;;8.43;;
10365;SDS011;5229;41.820;23.490;2023-03-02T16:38:32;13.90;;;9.20;;
10365;SDS011;5229;41.820;23.490;2023-03-02T16:41:00;13.40;;;9.50;;
10365;SDS011;5229;41.820;23.490;2023-03-02T16:43:29;67.70;;;41.10;;
10365;SDS011;5229;41.820;23.490;2023-03-02T16:45:55;31.77;;;21.47;;
10365;SDS011;5229;41.820;23.490;2023-03-02T16:48:23;62.17;;;37.23;;
10365;SDS011;5229;41.820;23.490;2023-03-02T16:50:54;32.20;;;19.87;;
10365;SDS011;5229;41.820;23.490;2023-03-02T16:53:21;15.73;;;10.37;;
10365;SDS011;5229;41.820;23.490;2023-03-02T16:55:48;74.33;;;43.20;;
10365;SDS011;5229;41.820;23.490;2023-03-02T16:58:15;41.87;;;25.07;;
10365;SDS011;5229;41.820;23.490;2023-03-02T17:00:43;34.47;;;22.27;;
10365;SDS011;5229;41.820;23.490;2023-03-02T17:03:10;23.90;;;15.47;;
10365;SDS011;5229;41.820;23.490;2023-03-02T17:05:37;19.37;;;11.80;;
10365;SDS011;5229;41.820;23.490;2023-03-02T17:08:06;14.40;;;10.30;;
10365;SDS011;5229;41.820;23.490;2023-03-02T17:10:37;30.27;;;22.70;;
10365;SDS011;5229;41.820;23.490;2023-03-02T17:13:05;30.90;;;21.77;;
10365;SDS011;5229;41.820;23.490;2023-03-02T17:15:32;28.33;;;23.07;;
10365;SDS011;5229;41.820;23.490;2023-03-02T17:18:01;28.47;;;20.93;;
10365;SDS011;5229;41.820;23.490;2023-03-02T17:20:28;23.57;;;18.73;;
10365;SDS011;5229;41.820;23.490;2023-03-02T17:22:54;25.77;;;18.83;;
10365;SDS011;5229;41.820;23.490;2023-03-02T17:25:21;21.50;;;15.03;;
10365;SDS011;5229;41.820;23.490;2023-03-02T17:27:48;14.20;;;11.00;;
10365;SDS011;5229;41.820;23.490;2023-03-02T17:30:15;16.00;;;11.20;;
10365;SDS011;5229;41.820;23.490;2023-03-02T17:32:42;15.93;;;10.63;;
10365;SDS011;5229;41.820;23.490;2023-03-02T17:35:11;16.47;;;11.67;;
10365;SDS011;5229;41.820;23.490;2023-03-02T17:37:39;13.50;;;10.23;;
10365;SDS011;5229;41.820;23.490;2023-03-02T17:40:06;12.20;;;10.53;;
10365;SDS011;5229;41.820;23.490;2023-03-02T17:42:36;13.03;;;9.80;;
10365;SDS011;5229;41.820;23.490;2023-03-02T17:45:03;11.30;;;9.57;;
10365;SDS011;5229;41.820;23.490;2023-03-02T17:47:31;10.77;;;8.13;;